sensor_id;sensor_type;location;lat;lon;timestamp;pressure;altitude;pressure_sealevel;temperature;humidity
22653;BME280;11493;43.344;26.226;2023-04-04T00:00:35;98409.84;;;9.85;100.00
22653;BME280;11493;43.344;26.226;2023-04-04T00:03:02;98405.81;;;9.82;100.00
22653;BME280;11493;43.344;26.226;2023-04-04T00:05:30;98401.41;;;9.90;100.00
22653;BME280;11493;43.344;26.226;2023-04-04T00:07:57;98387.34;;;9.92;100.00
22653;BME280;11493;43.344;26.226;2023-04-04T00:10:24;98383.53;;;9.84;100.00
22653;BME280;11493;43.344;26.226;2023-04-04T00:12:51;98385.59;;;9.87;100.00
22653;BME280;11493;43.344;26.226;2023-04-04T00:15:18;98371.06;;;9.86;100.00
22653;BME280;11493;43.344;26.226;2023-04-04T00:17:45;98376.50;;;9.95;100.00
22653;BME280;11493;43.344;26.226;2023-04-04T00:20:12;98370.88;;;9.92;100.00
22653;BME280;11493;43.344;26.226;2023-04-04T00:22:39;98367.66;;;9.89;100.00
22653;BME280;11493;43.344;26.226;2023-04-04T00:25:07;98371.91;;;9.78;100.00
22653;BME280;11493;43.344;26.226;2023-04-04T00:27:35;98361.59;;;9.75;100.00
22653;BME280;11493;43.344;26.226;2023-04-04T00:30:02;98355.56;;;9.82;100.00
22653;BME280;11493;43.344;26.226;2023-04-04T00:32:29;98346.72;;;9.76;100.00
22653;BME280;11493;43.344;26.226;2023-04-04T00:34:57;98350.09;;;9.82;100.00
22653;BME280;11493;43.344;26.226;2023-04-04T00:37:24;98336.81;;;9.84;100.00
22653;BME280;11493;43.344;26.226;2023-04-04T00:39:51;98349.47;;;9.76;100.00
22653;BME280;11493;43.344;26.226;2023-04-04T00:42:18;98344.63;;;9.73;100.00
22653;BME280;11493;43.344;26.226;2023-04-04T00:44:45;98335.53;;;9.81;100.00
22653;BME280;11493;43.344;26.226;2023-04-04T00:47:13;98327.50;;;9.76;100.00
22653;BME280;11493;43.344;26.226;2023-04-04T00:49:41;98327.69;;;9.71;100.00
22653;BME280;11493;43.344;26.226;2023-04-04T00:52:10;98337.34;;;9.77;100.00
22653;BME280;11493;43.344;26.226;2023-04-04T00:54:38;98319.53;;;9.63;100.00
22653;BME280;11493;43.344;26.226;2023-04-04T00:57:06;98315.66;;;9.64;100.00
22653;BME280;11493;43.344;26.226;2023-04-04T00:59:34;98334.78;;;9.72;100.00
22653;BME280;11493;43.344;26.226;2023-04-04T01:02:02;98334.78;;;9.72;100.00
22653;BME280;11493;43.344;26.226;2023-04-04T01:04:30;98347.38;;;9.73;100.00
22653;BME280;11493;43.344;26.226;2023-04-04T01:06:58;98330.53;;;9.63;100.00
22653;BME280;11493;43.344;26.226;2023-04-04T01:09:27;98337.34;;;9.57;100.00
22653;BME280;11493;43.344;26.226;2023-04-04T01:11:55;98335.22;;;9.62;100.00
22653;BME280;11493;43.344;26.226;2023-04-04T01:14:24;98325.41;;;9.73;100.00
22653;BME280;11493;43.344;26.226;2023-04-04T01:16:52;98326.69;;;9.55;100.00
22653;BME280;11493;43.344;26.226;2023-04-04T01:19:31;98314.16;;;9.66;100.00
22653;BME280;11493;43.344;26.226;2023-04-04T01:22:04;98313.94;;;9.71;100.00
22653;BME280;11493;43.344;26.226;2023-04-04T01:24:33;98294.22;;;9.57;100.00
22653;BME280;11493;43.344;26.226;2023-04-04T01:27:02;98296.94;;;9.57;100.00
22653;BME280;11493;43.344;26.226;2023-04-04T01:29:32;98290.03;;;9.51;100.00
22653;BME280;11493;43.344;26.226;2023-04-04T01:34:45;98312.69;;;9.69;100.00
22653;BME280;11493;43.344;26.226;2023-04-04T01:40:17;98331.72;;;9.74;100.00
22653;BME280;11493;43.344;26.226;2023-04-04T01:42:50;98332.50;;;9.74;100.00
22653;BME280;11493;43.344;26.226;2023-04-04T01:45:20;98328.69;;;9.67;100.00
22653;BME280;11493;43.344;26.226;2023-04-04T01:47:49;98311.22;;;9.71;100.00
22653;BME280;11493;43.344;26.226;2023-04-04T01:50:21;98314.22;;;9.78;100.00
22653;BME280;11493;43.344;26.226;2023-04-04T01:52:48;98312.16;;;9.75;100.00
22653;BME280;11493;43.344;26.226;2023-04-04T01:55:15;98316.91;;;9.66;100.00
22653;BME280;11493;43.344;26.226;2023-04-04T01:57:42;98321.19;;;9.76;100.00
22653;BME280;11493;43.344;26.226;2023-04-04T02:00:10;98306.53;;;9.72;100.00
22653;BME280;11493;43.344;26.226;2023-04-04T02:02:43;98302.31;;;9.74;100.00
22653;BME280;11493;43.344;26.226;2023-04-04T02:05:11;98280.31;;;9.74;100.00
22653;BME280;11493;43.344;26.226;2023-04-04T02:07:39;98294.06;;;9.74;100.00
22653;BME280;11493;43.344;26.226;2023-04-04T02:10:17;98297.56;;;9.83;100.00
22653;BME280;11493;43.344;26.226;2023-04-04T02:12:44;98298.81;;;9.86;100.00
22653;BME280;11493;43.344;26.226;2023-04-04T02:15:12;98293.41;;;9.77;100.00
22653;BME280;11493;43.344;26.226;2023-04-04T02:17:39;98264.19;;;9.73;100.00
22653;BME280;11493;43.344;26.226;2023-04-04T02:20:07;98242.06;;;9.69;100.00
22653;BME280;11493;43.344;26.226;2023-04-04T02:22:34;98207.34;;;9.52;100.00
22653;BME280;11493;43.344;26.226;2023-04-04T02:25:01;98192.69;;;9.48;100.00
22653;BME280;11493;43.344;26.226;2023-04-04T02:27:28;98209.69;;;9.42;100.00
22653;BME280;11493;43.344;26.226;2023-04-04T02:29:55;98224.00;;;9.47;100.00
22653;BME280;11493;43.344;26.226;2023-04-04T02:32:23;98235.13;;;9.51;100.00
22653;BME280;11493;43.344;26.226;2023-04-04T02:34:51;98235.13;;;9.51;100.00
22653;BME280;11493;43.344;26.226;2023-04-04T02:37:18;98244.84;;;9.48;100.00
22653;BME280;11493;43.344;26.226;2023-04-04T02:39:49;98240.91;;;9.58;100.00
22653;BME280;11493;43.344;26.226;2023-04-04T02:42:16;98238.81;;;9.55;100.00
22653;BME280;11493;43.344;26.226;2023-04-04T02:44:43;98243.50;;;9.54;100.00
22653;BME280;11493;43.344;26.226;2023-04-04T02:47:14;98252.66;;;9.38;100.00
22653;BME280;11493;43.344;26.226;2023-04-04T02:49:43;98262.59;;;9.51;100.00
22653;BME280;11493;43.344;26.226;2023-04-04T02:52:12;98265.34;;;9.51;100.00
22653;BME280;11493;43.344;26.226;2023-04-04T02:54:42;98268.50;;;9.62;100.00
22653;BME280;11493;43.344;26.226;2023-04-04T02:57:16;98259.38;;;9.49;100.00
22653;BME280;11493;43.344;26.226;2023-04-04T02:59:43;98270.78;;;9.60;100.00
22653;BME280;11493;43.344;26.226;2023-04-04T03:02:10;98271.09;;;9.58;100.00
22653;BME280;11493;43.344;26.226;2023-04-04T03:04:37;98265.81;;;9.53;100.00
22653;BME280;11493;43.344;26.226;2023-04-04T03:07:05;98270.69;;;9.47;100.00
22653;BME280;11493;43.344;26.226;2023-04-04T03:09:32;98257.09;;;9.51;100.00
22653;BME280;11493;43.344;26.226;2023-04-04T03:11:59;98275.84;;;9.49;100.00
22653;BME280;11493;43.344;26.226;2023-04-04T03:14:26;98274.25;;;9.48;100.00
22653;BME280;11493;43.344;26.226;2023-04-04T03:16:57;98273.91;;;9.49;100.00
22653;BME280;11493;43.344;26.226;2023-04-04T03:19:24;98274.84;;;9.53;100.00
22653;BME280;11493;43.344;26.226;2023-04-04T03:21:51;98284.38;;;9.56;100.00
22653;BME280;11493;43.344;26.226;2023-04-04T03:24:19;98265.19;;;9.47;100.00
22653;BME280;11493;43.344;26.226;2023-04-04T03:26:46;98263.25;;;9.48;100.00
22653;BME280;11493;43.344;26.226;2023-04-04T03:29:13;98274.91;;;9.45;100.00
22653;BME280;11493;43.344;26.226;2023-04-04T03:31:40;98248.50;;;9.32;100.00
22653;BME280;11493;43.344;26.226;2023-04-04T03:34:07;98268.47;;;9.41;100.00
22653;BME280;11493;43.344;26.226;2023-04-04T03:36:35;98259.09;;;9.42;100.00
22653;BME280;11493;43.344;26.226;2023-04-04T03:39:03;98259.91;;;9.42;100.00
22653;BME280;11493;43.344;26.226;2023-04-04T03:41:29;98256.75;;;9.52;100.00
22653;BME280;11493;43.344;26.226;2023-04-04T03:43:56;98266.63;;;9.53;100.00
22653;BME280;11493;43.344;26.226;2023-04-04T03:46:23;98265.94;;;9.57;100.00
22653;BME280;11493;43.344;26.226;2023-04-04T03:48:51;98259.66;;;9.56;100.00
22653;BME280;11493;43.344;26.226;2023-04-04T03:51:22;98263.06;;;9.53;100.00
22653;BME280;11493;43.344;26.226;2023-04-04T03:53:50;98266.75;;;9.57;100.00
22653;BME280;11493;43.344;26.226;2023-04-04T03:56:17;98269.03;;;9.55;100.00
22653;BME280;11493;43.344;26.226;2023-04-04T03:58:45;98255.50;;;9.50;100.00
22653;BME280;11493;43.344;26.226;2023-04-04T04:01:16;98261.66;;;9.47;100.00
22653;BME280;11493;43.344;26.226;2023-04-04T04:03:43;98262.31;;;9.44;100.00
22653;BME280;11493;43.344;26.226;2023-04-04T04:06:10;98267.81;;;9.44;100.00
22653;BME280;11493;43.344;26.226;2023-04-04T04:08:38;98274.50;;;9.55;100.00
22653;BME280;11493;43.344;26.226;2023-04-04T04:11:06;98278.06;;;9.55;100.00
22653;BME280;11493;43.344;26.226;2023-04-04T04:13:34;98287.78;;;9.53;100.00
22653;BME280;11493;43.344;26.226;2023-04-04T04:16:05;98276.94;;;9.57;100.00
22653;BME280;11493;43.344;26.226;2023-04-04T04:18:34;98290.00;;;9.60;100.00
22653;BME280;11493;43.344;26.226;2023-04-04T04:21:03;98287.63;;;9.49;100.00
22653;BME280;11493;43.344;26.226;2023-04-04T04:23:32;98296.88;;;9.45;100.00
22653;BME280;11493;43.344;26.226;2023-04-04T04:25:59;98298.75;;;9.53;100.00
22653;BME280;11493;43.344;26.226;2023-04-04T04:28:27;98291.13;;;9.59;100.00
22653;BME280;11493;43.344;26.226;2023-04-04T04:31:08;98274.25;;;9.48;100.00
22653;BME280;11493;43.344;26.226;2023-04-04T04:33:48;98280.88;;;9.47;100.00
22653;BME280;11493;43.344;26.226;2023-04-04T04:36:19;98282.19;;;9.41;100.00
22653;BME280;11493;43.344;26.226;2023-04-04T04:38:53;98278.66;;;9.40;100.00
22653;BME280;11493;43.344;26.226;2023-04-04T04:41:20;98278.78;;;9.44;100.00
22653;BME280;11493;43.344;26.226;2023-04-04T04:43:50;98276.72;;;9.41;100.00
22653;BME280;11493;43.344;26.226;2023-04-04T04:46:18;98292.31;;;9.49;100.00
22653;BME280;11493;43.344;26.226;2023-04-04T04:48:46;98293.25;;;9.53;100.00
22653;BME280;11493;43.344;26.226;2023-04-04T04:51:15;98293.94;;;9.50;100.00
22653;BME280;11493;43.344;26.226;2023-04-04T04:53:47;98307.66;;;9.50;100.00
22653;BME280;11493;43.344;26.226;2023-04-04T04:56:14;98301.69;;;9.48;100.00
22653;BME280;11493;43.344;26.226;2023-04-04T04:58:44;98306.53;;;9.51;100.00
22653;BME280;11493;43.344;26.226;2023-04-04T05:01:20;98316.66;;;9.59;100.00
22653;BME280;11493;43.344;26.226;2023-04-04T05:03:48;98320.53;;;9.58;100.00
22653;BME280;11493;43.344;26.226;2023-04-04T05:06:25;98326.97;;;9.62;100.00
22653;BME280;11493;43.344;26.226;2023-04-04T05:08:53;98311.03;;;9.55;100.00
22653;BME280;11493;43.344;26.226;2023-04-04T05:11:27;98324.88;;;9.59;100.00
22653;BME280;11493;43.344;26.226;2023-04-04T05:13:55;98310.22;;;9.55;100.00
22653;BME280;11493;43.344;26.226;2023-04-04T05:16:24;98303.53;;;9.65;100.00
22653;BME280;11493;43.344;26.226;2023-04-04T05:18:54;98290.31;;;9.58;100.00
22653;BME280;11493;43.344;26.226;2023-04-04T05:21:22;98292.97;;;9.67;100.00
22653;BME280;11493;43.344;26.226;2023-04-04T05:23:51;98296.09;;;9.65;100.00
22653;BME280;11493;43.344;26.226;2023-04-04T05:26:20;98274.78;;;9.62;100.00
22653;BME280;11493;43.344;26.226;2023-04-04T05:28:49;98274.03;;;9.53;100.00
22653;BME280;11493;43.344;26.226;2023-04-04T05:31:18;98292.31;;;9.49;100.00
22653;BME280;11493;43.344;26.226;2023-04-04T05:33:48;98297.25;;;9.35;100.00
22653;BME280;11493;43.344;26.226;2023-04-04T05:36:25;98280.97;;;9.30;100.00
22653;BME280;11493;43.344;26.226;2023-04-04T05:38:56;98280.50;;;9.28;100.00
22653;BME280;11493;43.344;26.226;2023-04-04T05:41:28;98279.41;;;9.20;100.00
22653;BME280;11493;43.344;26.226;2023-04-04T05:44:00;98276.19;;;9.18;100.00
22653;BME280;11493;43.344;26.226;2023-04-04T05:46:29;98276.84;;;9.15;100.00
22653;BME280;11493;43.344;26.226;2023-04-04T05:48:56;98264.78;;;9.07;100.00
22653;BME280;11493;43.344;26.226;2023-04-04T05:51:24;98262.22;;;9.02;100.00
22653;BME280;11493;43.344;26.226;2023-04-04T05:54:04;98270.59;;;9.06;100.00
22653;BME280;11493;43.344;26.226;2023-04-04T05:56:34;98274.81;;;9.03;100.00
22653;BME280;11493;43.344;26.226;2023-04-04T05:59:04;98274.13;;;8.77;100.00
22653;BME280;11493;43.344;26.226;2023-04-04T06:01:36;98279.88;;;8.37;100.00
22653;BME280;11493;43.344;26.226;2023-04-04T06:04:10;98265.72;;;8.18;100.00
22653;BME280;11493;43.344;26.226;2023-04-04T06:06:38;98267.22;;;7.98;100.00
22653;BME280;11493;43.344;26.226;2023-04-04T06:09:05;98271.88;;;7.80;100.00
22653;BME280;11493;43.344;26.226;2023-04-04T06:11:34;98276.53;;;7.71;100.00
22653;BME280;11493;43.344;26.226;2023-04-04T06:14:05;98261.22;;;7.44;100.00
22653;BME280;11493;43.344;26.226;2023-04-04T06:16:34;98272.34;;;7.48;100.00
22653;BME280;11493;43.344;26.226;2023-04-04T06:19:02;98284.75;;;7.37;100.00
22653;BME280;11493;43.344;26.226;2023-04-04T06:21:29;98284.69;;;7.19;100.00
22653;BME280;11493;43.344;26.226;2023-04-04T06:23:57;98283.09;;;7.18;100.00
22653;BME280;11493;43.344;26.226;2023-04-04T06:26:24;98292.41;;;7.17;100.00
22653;BME280;11493;43.344;26.226;2023-04-04T06:28:54;98300.44;;;7.14;100.00
22653;BME280;11493;43.344;26.226;2023-04-04T06:31:30;98311.03;;;7.07;100.00
22653;BME280;11493;43.344;26.226;2023-04-04T06:34:04;98303.47;;;7.04;100.00
22653;BME280;11493;43.344;26.226;2023-04-04T06:36:36;98315.50;;;6.94;100.00
22653;BME280;11493;43.344;26.226;2023-04-04T06:39:04;98323.34;;;6.87;100.00
22653;BME280;11493;43.344;26.226;2023-04-04T06:41:31;98310.31;;;6.84;100.00
22653;BME280;11493;43.344;26.226;2023-04-04T06:43:58;98317.19;;;6.81;100.00
22653;BME280;11493;43.344;26.226;2023-04-04T06:46:26;98314.16;;;6.83;100.00
22653;BME280;11493;43.344;26.226;2023-04-04T06:48:53;98320.06;;;6.76;100.00
22653;BME280;11493;43.344;26.226;2023-04-04T06:51:20;98330.88;;;6.81;100.00
22653;BME280;11493;43.344;26.226;2023-04-04T06:53:49;98335.03;;;6.79;100.00
22653;BME280;11493;43.344;26.226;2023-04-04T06:56:16;98325.38;;;6.73;100.00
22653;BME280;11493;43.344;26.226;2023-04-04T06:58:43;98328.09;;;6.64;100.00
22653;BME280;11493;43.344;26.226;2023-04-04T07:01:10;98328.25;;;6.68;100.00
22653;BME280;11493;43.344;26.226;2023-04-04T07:03:38;98327.44;;;6.67;100.00
22653;BME280;11493;43.344;26.226;2023-04-04T07:06:05;98326.28;;;6.59;100.00
22653;BME280;11493;43.344;26.226;2023-04-04T07:08:32;98326.78;;;6.62;100.00
22653;BME280;11493;43.344;26.226;2023-04-04T07:11:03;98334.97;;;6.62;100.00
22653;BME280;11493;43.344;26.226;2023-04-04T07:13:30;98319.47;;;6.48;100.00
22653;BME280;11493;43.344;26.226;2023-04-04T07:15:57;98340.44;;;6.62;100.00
22653;BME280;11493;43.344;26.226;2023-04-04T07:18:24;98328.59;;;6.44;100.00
22653;BME280;11493;43.344;26.226;2023-04-04T07:20:51;98338.47;;;6.53;100.00
22653;BME280;11493;43.344;26.226;2023-04-04T07:23:18;98330.25;;;6.53;100.00
22653;BME280;11493;43.344;26.226;2023-04-04T07:25:46;98339.44;;;6.57;100.00
22653;BME280;11493;43.344;26.226;2023-04-04T07:28:13;98345.06;;;6.52;100.00
22653;BME280;11493;43.344;26.226;2023-04-04T07:30:40;98332.31;;;6.48;100.00
22653;BME280;11493;43.344;26.226;2023-04-04T07:33:08;98323.75;;;6.41;100.00
22653;BME280;11493;43.344;26.226;2023-04-04T07:35:35;98335.88;;;6.48;100.00
22653;BME280;11493;43.344;26.226;2023-04-04T07:38:02;98319.28;;;6.45;100.00
22653;BME280;11493;43.344;26.226;2023-04-04T07:40:30;98312.81;;;6.41;100.00
22653;BME280;11493;43.344;26.226;2023-04-04T07:42:57;98318.22;;;6.54;100.00
22653;BME280;11493;43.344;26.226;2023-04-04T07:45:24;98325.97;;;6.61;100.00
22653;BME280;11493;43.344;26.226;2023-04-04T07:47:51;98332.38;;;6.56;100.00
22653;BME280;11493;43.344;26.226;2023-04-04T07:50:18;98328.16;;;6.50;100.00
22653;BME280;11493;43.344;26.226;2023-04-04T07:52:51;98326.28;;;6.59;100.00
22653;BME280;11493;43.344;26.226;2023-04-04T07:55:20;98310.16;;;6.49;100.00
22653;BME280;11493;43.344;26.226;2023-04-04T07:57:51;98332.75;;;6.64;100.00
22653;BME280;11493;43.344;26.226;2023-04-04T08:00:19;98338.03;;;6.60;100.00
22653;BME280;11493;43.344;26.226;2023-04-04T08:02:52;98326.47;;;6.63;100.00
22653;BME280;11493;43.344;26.226;2023-04-04T08:05:19;98315.72;;;6.67;100.00
22653;BME280;11493;43.344;26.226;2023-04-04T08:07:47;98309.09;;;6.59;100.00
22653;BME280;11493;43.344;26.226;2023-04-04T08:10:14;98322.94;;;6.71;100.00
22653;BME280;11493;43.344;26.226;2023-04-04T08:12:43;98325.84;;;6.75;100.00
22653;BME280;11493;43.344;26.226;2023-04-04T08:15:11;98323.31;;;6.78;100.00
22653;BME280;11493;43.344;26.226;2023-04-04T08:17:38;98330.56;;;6.83;100.00
22653;BME280;11493;43.344;26.226;2023-04-04T08:20:06;98328.94;;;6.82;100.00
22653;BME280;11493;43.344;26.226;2023-04-04T08:22:33;98339.25;;;6.85;100.00
22653;BME280;11493;43.344;26.226;2023-04-04T08:25:00;98315.78;;;6.84;100.00
22653;BME280;11493;43.344;26.226;2023-04-04T08:27:27;98320.59;;;6.87;100.00
22653;BME280;11493;43.344;26.226;2023-04-04T08:29:54;98323.84;;;6.89;100.00
22653;BME280;11493;43.344;26.226;2023-04-04T08:32:21;98321.13;;;6.98;100.00
22653;BME280;11493;43.344;26.226;2023-04-04T08:34:48;98328.53;;;6.97;100.00
22653;BME280;11493;43.344;26.226;2023-04-04T08:37:16;98322.34;;;6.83;100.00
22653;BME280;11493;43.344;26.226;2023-04-04T08:39:43;98331.31;;;6.75;100.00
22653;BME280;11493;43.344;26.226;2023-04-04T08:42:11;98319.91;;;6.73;100.00
22653;BME280;11493;43.344;26.226;2023-04-04T08:44:43;98326.00;;;6.70;100.00
22653;BME280;11493;43.344;26.226;2023-04-04T08:47:11;98334.69;;;6.72;100.00
22653;BME280;11493;43.344;26.226;2023-04-04T08:49:42;98330.19;;;6.76;100.00
22653;BME280;11493;43.344;26.226;2023-04-04T08:52:17;98319.91;;;6.73;100.00
22653;BME280;11493;43.344;26.226;2023-04-04T08:55:03;98319.41;;;6.71;100.00
22653;BME280;11493;43.344;26.226;2023-04-04T08:57:31;98323.25;;;6.70;100.00
22653;BME280;11493;43.344;26.226;2023-04-04T08:59:59;98323.75;;;6.72;100.00
22653;BME280;11493;43.344;26.226;2023-04-04T09:05:36;98327.72;;;6.57;100.00
22653;BME280;11493;43.344;26.226;2023-04-04T09:08:04;98340.44;;;6.62;100.00
22653;BME280;11493;43.344;26.226;2023-04-04T09:10:32;98337.84;;;6.56;100.00
22653;BME280;11493;43.344;26.226;2023-04-04T09:13:02;98326.09;;;6.56;100.00
22653;BME280;11493;43.344;26.226;2023-04-04T09:15:51;98314.19;;;6.52;100.00
22653;BME280;11493;43.344;26.226;2023-04-04T09:18:19;98331.94;;;6.72;100.00
22653;BME280;11493;43.344;26.226;2023-04-04T09:20:47;98323.91;;;6.67;100.00
22653;BME280;11493;43.344;26.226;2023-04-04T09:23:16;98341.13;;;6.67;100.00
22653;BME280;11493;43.344;26.226;2023-04-04T09:25:53;98344.28;;;6.61;100.00
22653;BME280;11493;43.344;26.226;2023-04-04T09:28:24;98348.97;;;6.60;100.00
22653;BME280;11493;43.344;26.226;2023-04-04T09:30:52;98353.75;;;6.54;100.00
22653;BME280;11493;43.344;26.226;2023-04-04T09:33:20;98360.00;;;6.55;100.00
22653;BME280;11493;43.344;26.226;2023-04-04T09:36:05;98352.25;;;6.48;100.00
22653;BME280;11493;43.344;26.226;2023-04-04T09:38:35;98354.19;;;6.48;100.00
22653;BME280;11493;43.344;26.226;2023-04-04T09:41:06;98352.00;;;6.58;100.00
22653;BME280;11493;43.344;26.226;2023-04-04T09:43:38;98331.03;;;6.45;100.00
22653;BME280;11493;43.344;26.226;2023-04-04T09:46:05;98354.53;;;6.55;100.00
22653;BME280;11493;43.344;26.226;2023-04-04T09:48:33;98357.22;;;6.46;100.00
22653;BME280;11493;43.344;26.226;2023-04-04T09:51:10;98357.22;;;6.46;100.00
22653;BME280;11493;43.344;26.226;2023-04-04T09:53:38;98362.69;;;6.46;100.00
22653;BME280;11493;43.344;26.226;2023-04-04T09:56:08;98355.13;;;6.43;100.00
22653;BME280;11493;43.344;26.226;2023-04-04T09:58:35;98372.00;;;6.45;100.00
22653;BME280;11493;43.344;26.226;2023-04-04T10:01:16;98373.38;;;6.34;100.00
22653;BME280;11493;43.344;26.226;2023-04-04T10:03:50;98362.00;;;6.41;100.00
22653;BME280;11493;43.344;26.226;2023-04-04T10:06:19;98363.63;;;6.42;100.00
22653;BME280;11493;43.344;26.226;2023-04-04T10:08:47;98365.06;;;6.39;100.00
22653;BME280;11493;43.344;26.226;2023-04-04T10:11:35;98349.91;;;6.33;100.00
22653;BME280;11493;43.344;26.226;2023-04-04T10:14:04;98355.78;;;6.49;100.00
22653;BME280;11493;43.344;26.226;2023-04-04T10:16:32;98341.06;;;6.58;100.00
22653;BME280;11493;43.344;26.226;2023-04-04T10:19:04;98358.94;;;6.65;100.00
22653;BME280;11493;43.344;26.226;2023-04-04T10:21:34;98353.31;;;6.61;100.00
22653;BME280;11493;43.344;26.226;2023-04-04T10:24:03;98346.75;;;6.71;100.00
22653;BME280;11493;43.344;26.226;2023-04-04T10:26:35;98341.75;;;6.64;100.00
22653;BME280;11493;43.344;26.226;2023-04-04T10:29:03;98359.28;;;6.72;100.00
22653;BME280;11493;43.344;26.226;2023-04-04T10:31:32;98348.53;;;6.75;100.00
22653;BME280;11493;43.344;26.226;2023-04-04T10:34:28;98356.72;;;6.75;100.00
22653;BME280;11493;43.344;26.226;2023-04-04T10:37:12;98355.97;;;6.83;100.00
22653;BME280;11493;43.344;26.226;2023-04-04T10:39:45;98363.00;;;6.76;100.00
22653;BME280;11493;43.344;26.226;2023-04-04T10:42:18;98358.84;;;6.78;100.00
22653;BME280;11493;43.344;26.226;2023-04-04T10:44:46;98355.66;;;6.85;100.00
22653;BME280;11493;43.344;26.226;2023-04-04T10:47:16;98362.44;;;6.87;100.00
22653;BME280;11493;43.344;26.226;2023-04-04T10:49:44;98361.13;;;6.85;100.00
22653;BME280;11493;43.344;26.226;2023-04-04T10:52:20;98348.81;;;6.96;100.00
22653;BME280;11493;43.344;26.226;2023-04-04T10:54:50;98356.91;;;7.10;100.00
22653;BME280;11493;43.344;26.226;2023-04-04T10:57:18;98356.91;;;7.10;100.00
22653;BME280;11493;43.344;26.226;2023-04-04T10:59:57;98371.75;;;7.17;100.00
22653;BME280;11493;43.344;26.226;2023-04-04T11:02:57;98356.81;;;7.23;100.00
22653;BME280;11493;43.344;26.226;2023-04-04T11:05:32;98365.97;;;7.19;100.00
22653;BME280;11493;43.344;26.226;2023-04-04T11:08:02;98368.50;;;7.15;100.00
22653;BME280;11493;43.344;26.226;2023-04-04T11:10:40;98375.47;;;7.21;100.00
22653;BME280;11493;43.344;26.226;2023-04-04T11:13:15;98362.09;;;7.20;100.00
22653;BME280;11493;43.344;26.226;2023-04-04T11:15:56;98365.22;;;7.36;100.00
22653;BME280;11493;43.344;26.226;2023-04-04T11:18:47;98356.81;;;7.23;100.00
22653;BME280;11493;43.344;26.226;2023-04-04T11:21:19;98368.72;;;7.28;100.00
22653;BME280;11493;43.344;26.226;2023-04-04T11:26:18;98357.81;;;7.45;100.00
22653;BME280;11493;43.344;26.226;2023-04-04T11:29:01;98350.91;;;7.56;100.00
22653;BME280;11493;43.344;26.226;2023-04-04T11:31:42;98354.66;;;7.77;100.00
22653;BME280;11493;43.344;26.226;2023-04-04T11:34:12;98359.50;;;7.80;100.00
22653;BME280;11493;43.344;26.226;2023-04-04T11:41:52;98357.13;;;8.13;100.00
22653;BME280;11493;43.344;26.226;2023-04-04T11:44:21;98363.06;;;8.24;100.00
22653;BME280;11493;43.344;26.226;2023-04-04T11:49:32;98360.66;;;8.40;100.00
22653;BME280;11493;43.344;26.226;2023-04-04T11:52:09;98349.06;;;8.17;99.76
22653;BME280;11493;43.344;26.226;2023-04-04T11:54:37;98357.41;;;8.20;99.73
22653;BME280;11493;43.344;26.226;2023-04-04T11:57:05;98349.69;;;8.22;99.74
22653;BME280;11493;43.344;26.226;2023-04-04T11:59:38;98333.56;;;8.21;98.74
22653;BME280;11493;43.344;26.226;2023-04-04T12:02:08;98345.00;;;8.32;97.60
22653;BME280;11493;43.344;26.226;2023-04-04T12:04:37;98350.66;;;8.35;99.40
22653;BME280;11493;43.344;26.226;2023-04-04T12:07:09;98340.03;;;8.34;100.00
22653;BME280;11493;43.344;26.226;2023-04-04T12:09:37;98347.94;;;8.35;98.93
22653;BME280;11493;43.344;26.226;2023-04-04T12:12:05;98348.25;;;8.16;99.91
22653;BME280;11493;43.344;26.226;2023-04-04T12:14:33;98348.91;;;8.05;100.00
22653;BME280;11493;43.344;26.226;2023-04-04T12:17:01;98349.69;;;7.88;100.00
22653;BME280;11493;43.344;26.226;2023-04-04T12:19:28;98355.00;;;7.84;100.00
22653;BME280;11493;43.344;26.226;2023-04-04T12:21:56;98346.47;;;7.95;100.00
22653;BME280;11493;43.344;26.226;2023-04-04T12:24:23;98349.84;;;7.91;100.00
22653;BME280;11493;43.344;26.226;2023-04-04T12:26:51;98346.97;;;7.97;99.74
22653;BME280;11493;43.344;26.226;2023-04-04T12:29:21;98346.13;;;7.87;100.00
22653;BME280;11493;43.344;26.226;2023-04-04T12:31:49;98342.78;;;8.08;100.00
22653;BME280;11493;43.344;26.226;2023-04-04T12:34:27;98350.34;;;8.11;100.00
22653;BME280;11493;43.344;26.226;2023-04-04T12:36:56;98360.47;;;8.19;100.00
22653;BME280;11493;43.344;26.226;2023-04-04T12:39:27;98358.41;;;8.16;99.98
22653;BME280;11493;43.344;26.226;2023-04-04T12:42:02;98353.25;;;7.97;100.00
22653;BME280;11493;43.344;26.226;2023-04-04T12:44:35;98347.94;;;8.01;100.00
22653;BME280;11493;43.344;26.226;2023-04-04T12:47:07;98346.63;;;8.07;100.00
22653;BME280;11493;43.344;26.226;2023-04-04T12:52:06;98345.81;;;8.23;100.00
22653;BME280;11493;43.344;26.226;2023-04-04T12:54:42;98354.03;;;8.32;100.00
22653;BME280;11493;43.344;26.226;2023-04-04T12:57:09;98341.97;;;8.33;100.00
22653;BME280;11493;43.344;26.226;2023-04-04T12:59:38;98341.28;;;8.28;100.00
22653;BME280;11493;43.344;26.226;2023-04-04T13:02:07;98345.31;;;8.30;100.00
22653;BME280;11493;43.344;26.226;2023-04-04T13:04:34;98350.31;;;8.28;100.00
22653;BME280;11493;43.344;26.226;2023-04-04T13:07:02;98348.25;;;8.08;100.00
22653;BME280;11493;43.344;26.226;2023-04-04T13:09:29;98347.59;;;7.94;100.00
22653;BME280;11493;43.344;26.226;2023-04-04T13:12:04;98343.41;;;8.05;100.00
22653;BME280;11493;43.344;26.226;2023-04-04T13:14:59;98350.34;;;8.11;100.00
22653;BME280;11493;43.344;26.226;2023-04-04T13:17:44;98335.69;;;8.07;100.00
22653;BME280;11493;43.344;26.226;2023-04-04T13:20:12;98346.16;;;7.96;100.00
22653;BME280;11493;43.344;26.226;2023-04-04T13:22:40;98336.97;;;8.01;100.00
22653;BME280;11493;43.344;26.226;2023-04-04T13:25:09;98326.81;;;7.93;100.00